Aérodrome :
LOGIN :

S'inscrire | Disclaimer

   EN    FR    IT 

 










Légende :    VFR   VFR Marginal   IFR   IFR Intensif   IFR Très Intensif
Visi : 
Plafond : 
>= 8 km
>= 3000ft
5 à 8 km
1000 à 3000 ft
1500m à 5 km
500 à 1000 ft
800 à 1500m
200 à 500 ft
< 800m
< 200 ft
Symboles :   Orages  Brouillard  Fortes neiges  Fortes précipitations  Vent > 20 kt
SIGMETs :   Divers  Orages  Givrage  Turbulence  Onde Orograph.  Cendres Volcan.






- Altitude de l'aérodrome : 202 ft
- Code IATA : LGW


EGKK - London Gatwick

DERNIER METAR :
  • 211020Z VRB02KT 8000 NSC 03/02 Q1043

METARs EXPIRÉS :
  • 210950Z VRB03KT 8000 NSC 01/01 Q1043
  • 210920Z 17002KT 8000 3500W VCFG NSC 00/M00 Q1042
  • 210850Z 18003KT 8000 NSC M02/M02 Q1042
  • 210820Z VRB03KT 8000 NSC M02/M02 Q1042
  • 210750Z VRB01KT 6000 NSC M03/M03 Q1042

TAF TAF EGKK
Valide du 21 à 06h jusqu'au 22 à 12h UTC


210503Z 2106/2212 VRB03KT 7000 NSC
PROB30
TEMPO 2106/2110 0300 FZFG VV///
BECMG 2109/2112 CAVOK
PROB40
TEMPO 2112/2118 9000
BECMG 2118/2121 6000
PROB30
TEMPO 2120/2201 0600 FG FZFG VV///
TEMPO 2201/2203 4000 BR BKN007
BECMG 2203/2206 3000 BR BKN005
TEMPO 2204/2212 BKN002
PROB30
TEMPO 2205/2211 0300 FG BKN001



MET'MAP, la Météo Aéronautique d'un coup d'oeil ! - Copyright ORBIFLY Décembre 2007 - Disclaimer

ORBIFLY MET'MAP TEAM :

Programmation & Développement : Alexandra Zaïnal
Sur une idée originale de : Baudouin d'Aumeries
Assistance à la programmation : Marc-Olivier Méhu
Soutien technique & logistique : Manuel Goepfert

Contact : metmap@orbifly.com




SOURCES & CREDITS :

   NOAA